createdAt,value
2023-05-19T00:00:38.277Z,78.4615
2023-05-19T00:01:39.983Z,72.7692
2023-05-19T00:02:42.450Z,74.4615
2023-05-19T00:03:43.415Z,73.5385
2023-05-19T00:04:44.880Z,72.3077
2023-05-19T00:05:46.599Z,78.8462
2023-05-19T00:06:48.140Z,78.6923
2023-05-19T00:07:49.868Z,75.4615
2023-05-19T00:08:51.981Z,75.4615
2023-05-19T00:09:53.104Z,75.2308
2023-05-19T00:10:54.860Z,75.3846
2023-05-19T00:11:56.511Z,74.1538
2023-05-19T00:12:58.083Z,70.7692
2023-05-19T00:13:59.746Z,73.5385
2023-05-19T00:15:01.338Z,77.3077
2023-05-19T00:16:03.042Z,77.3077
2023-05-19T00:17:04.637Z,74.0769
2023-05-19T00:18:06.366Z,73.5385
2023-05-19T00:19:08.022Z,75.4615
2023-05-19T00:20:09.595Z,77.3846
2023-05-19T00:21:11.189Z,78.6154
2023-05-19T00:22:12.899Z,77.3846
2023-05-19T00:23:14.499Z,73.6154
2023-05-19T00:24:16.190Z,79.7692
2023-05-19T00:25:17.795Z,79.9231
2023-05-19T00:26:19.506Z,80.3077
2023-05-19T00:27:21.106Z,77.7692
2023-05-19T00:28:22.770Z,80.0769
2023-05-19T00:29:24.388Z,80.6154
2023-05-19T00:30:26.080Z,74.4615
2023-05-19T00:31:27.747Z,71.6154
2023-05-19T00:32:29.416Z,78.8462
2023-05-19T00:33:30.992Z,86.6154
2023-05-19T00:34:32.921Z,79.7692
2023-05-19T00:35:34.280Z,79.6154
2023-05-19T00:36:35.979Z,81.4615
2023-05-19T00:37:37.510Z,82.2308
2023-05-19T00:38:39.214Z,82.3077
2023-05-19T00:39:40.915Z,78.5385
2023-05-19T00:40:42.600Z,80.6154
2023-05-19T00:41:44.160Z,80.5385
2023-05-19T00:42:45.832Z,85.7692
2023-05-19T00:43:47.403Z,83.2308
2023-05-19T00:44:49.163Z,77.5385
2023-05-19T00:45:51.411Z,80.4615
2023-05-19T00:46:52.391Z,76.0769
2023-05-19T00:47:53.993Z,78.1538
2023-05-19T00:48:55.665Z,81.0769
2023-05-19T00:49:57.302Z,82.8462
2023-05-19T00:50:58.984Z,79.7692
2023-05-19T00:52:00.557Z,82.1538
2023-05-19T00:53:02.254Z,80.9231
2023-05-19T00:54:03.850Z,84.2308
2023-05-19T00:55:05.948Z,82.6923
2023-05-19T00:56:07.186Z,81.6923
2023-05-19T00:57:08.783Z,78.3077
2023-05-19T00:58:11.417Z,82.7692
2023-05-19T00:59:12.143Z,83.0000
2023-05-19T01:00:13.745Z,80.5385
2023-05-19T01:01:15.442Z,82.3077
2023-05-19T01:02:17.027Z,81.0000
2023-05-19T01:03:18.728Z,80.3077
2023-05-19T01:04:20.308Z,81.6923
2023-05-19T01:05:22.112Z,82.6154
2023-05-19T01:06:23.646Z,81.3077
2023-05-19T01:07:25.290Z,81.0769
2023-05-19T01:08:27.012Z,83.1538
2023-05-19T01:09:28.591Z,79.5385
2023-05-19T01:10:30.421Z,79.3077
2023-05-19T01:11:32.411Z,80.9231
2023-05-19T01:12:33.468Z,80.6154
2023-05-19T01:13:35.185Z,84.3846
2023-05-19T01:14:36.732Z,81.0769
2023-05-19T01:15:38.457Z,82.5385
2023-05-19T01:16:40.128Z,83.0000
2023-05-19T01:17:41.820Z,82.0769
2023-05-19T01:18:43.365Z,82.3846
2023-05-19T01:19:45.027Z,85.3846
2023-05-19T01:20:46.668Z,83.0000
2023-05-19T01:21:48.394Z,80.6154
2023-05-19T01:22:49.969Z,84.2308
2023-05-19T01:23:51.580Z,84.3077
2023-05-19T01:24:53.942Z,83.6923
2023-05-19T01:25:54.957Z,79.6923
2023-05-19T01:26:56.965Z,81.1538
2023-05-19T01:27:58.187Z,81.8462
2023-05-19T01:28:59.765Z,79.0769
2023-05-19T01:30:01.547Z,85.4615
2023-05-19T01:31:03.161Z,86.4615
2023-05-19T01:32:04.852Z,85.7692
2023-05-19T01:33:06.470Z,85.7692
2023-05-19T01:34:08.120Z,86.6923
2023-05-19T01:35:09.689Z,85.6154
2023-05-19T01:36:11.322Z,85.7692
2023-05-19T01:37:13.948Z,84.6923
2023-05-19T01:38:14.633Z,81.3846
2023-05-19T01:39:16.282Z,84.2308
2023-05-19T01:40:17.872Z,82.8462
2023-05-19T01:41:19.586Z,84.5385
2023-05-19T01:42:21.230Z,83.3077
2023-05-19T01:43:22.830Z,88.4615
2023-05-19T01:44:25.451Z,82.8462
2023-05-19T01:45:26.148Z,86.0000
2023-05-19T01:46:27.936Z,81.0769
2023-05-19T01:47:29.510Z,82.4615
2023-05-19T01:48:31.092Z,85.6154
2023-05-19T01:49:32.739Z,83.2308
2023-05-19T01:50:34.603Z,86.6923
2023-05-19T01:51:36.097Z,81.9231
2023-05-19T01:52:38.400Z,83.6923
2023-05-19T01:53:39.344Z,81.4615
2023-05-19T01:54:40.947Z,87.9231
2023-05-19T01:55:42.662Z,82.6154
2023-05-19T01:56:44.427Z,84.9231
2023-05-19T01:57:45.994Z,83.8462
2023-05-19T01:58:47.603Z,84.4615
2023-05-19T01:59:49.264Z,83.4615
2023-05-19T02:00:50.894Z,82.5385
2023-05-19T02:01:52.613Z,79.2308
2023-05-19T02:02:54.249Z,83.7692
2023-05-19T02:03:55.792Z,83.3846
2023-05-19T02:04:57.524Z,82.4615
2023-05-19T02:05:59.229Z,85.8462
2023-05-19T02:07:00.770Z,82.2308
2023-05-19T02:08:02.515Z,83.8462
2023-05-19T02:09:04.073Z,85.6154
2023-05-19T02:10:05.724Z,82.3077
2023-05-19T02:11:07.311Z,81.0769
2023-05-19T02:12:09.063Z,84.1538
2023-05-19T02:13:10.984Z,88.5385
2023-05-19T02:14:12.327Z,80.9231
2023-05-19T02:15:13.914Z,86.2308
2023-05-19T02:16:15.639Z,82.7692
2023-05-19T02:17:17.241Z,84.3846
2023-05-19T02:18:18.883Z,81.5385
2023-05-19T02:19:20.667Z,80.4615
2023-05-19T02:20:22.206Z,82.0769
2023-05-19T02:21:23.818Z,82.0769
2023-05-19T02:22:25.464Z,81.5385
2023-05-19T02:23:27.111Z,83.6923
2023-05-19T02:24:28.744Z,85.3077
2023-05-19T02:25:30.390Z,82.6154
2023-05-19T02:26:32.020Z,81.9231
2023-05-19T02:27:33.932Z,84.9231
2023-05-19T02:28:35.360Z,80.0769
2023-05-19T02:29:37.912Z,86.3846
2023-05-19T02:30:38.596Z,78.7692
2023-05-19T02:31:40.308Z,81.1538
2023-05-19T02:32:41.962Z,85.2308
2023-05-19T02:33:43.940Z,83.3077
2023-05-19T02:34:45.215Z,83.8462
2023-05-19T02:35:46.786Z,86.6923
2023-05-19T02:36:48.439Z,82.6154
2023-05-19T02:37:50.224Z,82.6923
2023-05-19T02:38:51.756Z,82.4615
2023-05-19T02:39:53.391Z,83.8462
2023-05-19T02:40:55.141Z,85.9231
2023-05-19T02:41:56.756Z,84.0000
2023-05-19T02:42:58.356Z,80.7692
2023-05-19T02:44:00.476Z,84.8462
2023-05-19T02:45:01.602Z,84.3077
2023-05-19T02:46:03.317Z,83.1538
2023-05-19T02:47:04.882Z,82.4615
2023-05-19T02:48:06.699Z,84.0769
2023-05-19T02:49:08.315Z,84.3077
2023-05-19T02:50:09.924Z,80.2308
2023-05-19T02:51:11.562Z,84.2308
2023-05-19T02:52:13.318Z,80.6923
2023-05-19T02:53:15.064Z,79.9231
2023-05-19T02:54:17.006Z,84.9231
2023-05-19T02:55:18.124Z,83.9231
2023-05-19T02:56:19.819Z,88.8462
2023-05-19T02:57:21.427Z,93.4615
2023-05-19T02:58:23.165Z,96.9231
2023-05-19T02:59:25.715Z,98.0000
2023-05-19T03:00:26.366Z,98.7692
2023-05-19T03:01:28.062Z,97.8462
2023-05-19T03:02:29.764Z,99.6154
2023-05-19T03:03:31.436Z,98.0769
2023-05-19T03:04:32.943Z,98.3077
2023-05-19T03:05:34.659Z,101.0000
2023-05-19T03:06:36.269Z,97.5385
2023-05-19T03:07:38.582Z,99.6923
2023-05-19T03:08:42.176Z,98.1538
2023-05-19T03:09:41.188Z,100.4615
2023-05-19T03:10:42.708Z,95.7692
2023-05-19T03:11:44.393Z,99.2308
2023-05-19T03:12:46.010Z,96.7692
2023-05-19T03:13:47.728Z,95.5385
2023-05-19T03:14:49.390Z,96.0769
2023-05-19T03:15:50.963Z,100.2308
2023-05-19T03:16:52.846Z,102.0769
2023-05-19T03:17:54.278Z,101.1538
2023-05-19T03:18:55.899Z,100.9231
2023-05-19T03:19:57.553Z,103.6923
2023-05-19T03:20:59.179Z,103.9231
2023-05-19T03:22:00.767Z,103.3077
2023-05-19T03:23:02.384Z,98.2308
2023-05-19T03:24:04.108Z,99.3077
2023-05-19T03:25:09.003Z,104.6154
2023-05-19T03:26:07.366Z,102.3077
2023-05-19T03:27:09.029Z,106.6154
2023-05-19T03:28:10.663Z,98.6154
2023-05-19T03:29:12.275Z,99.6923
2023-05-19T03:30:15.017Z,100.8462
2023-05-19T03:31:15.582Z,100.6154
2023-05-19T03:32:17.249Z,105.3077
2023-05-19T03:33:18.927Z,103.8462
2023-05-19T03:34:21.495Z,102.1538
2023-05-19T03:35:22.155Z,102.6154
2023-05-19T03:36:23.745Z,102.6154
2023-05-19T03:37:25.411Z,103.2308
2023-05-19T03:38:27.048Z,100.8462
2023-05-19T03:39:28.660Z,102.3077
2023-05-19T03:40:30.554Z,98.6923
2023-05-19T03:41:32.040Z,100.6923
2023-05-19T03:42:33.693Z,99.2308
2023-05-19T03:43:35.324Z,98.2308
2023-05-19T03:44:36.965Z,104.0769
2023-05-19T03:45:38.681Z,100.5385
2023-05-19T03:46:40.273Z,102.5385
2023-05-19T03:47:41.914Z,100.3077
2023-05-19T03:48:43.578Z,97.5385
2023-05-19T03:49:45.176Z,101.9231
2023-05-19T03:50:46.869Z,100.8462
2023-05-19T03:51:48.443Z,100.5385
2023-05-19T03:52:50.127Z,102.6923
2023-05-19T03:53:51.775Z,99.5385
2023-05-19T03:54:54.482Z,100.6154
2023-05-19T03:55:55.443Z,103.4615
2023-05-19T03:56:56.694Z,96.0000
2023-05-19T03:57:58.373Z,102.6154
2023-05-19T03:59:00.029Z,102.1538
2023-05-19T04:00:01.789Z,101.4615
2023-05-19T04:01:03.373Z,104.0000
2023-05-19T04:02:04.934Z,106.6923
2023-05-19T04:03:06.632Z,102.0769
2023-05-19T04:04:08.269Z,103.7692
2023-05-19T04:05:10.001Z,99.6154
2023-05-19T04:06:11.522Z,100.5385
2023-05-19T04:07:13.181Z,103.3846
2023-05-19T04:08:14.776Z,101.5385
2023-05-19T04:09:16.452Z,97.1538
2023-05-19T04:10:19.239Z,99.9231
2023-05-19T04:11:19.904Z,104.1538
2023-05-19T04:12:21.571Z,96.6154
2023-05-19T04:13:23.237Z,100.7692
2023-05-19T04:14:25.769Z,102.1538
2023-05-19T04:15:27.327Z,99.9231
2023-05-19T04:16:28.224Z,98.9231
2023-05-19T04:17:29.769Z,103.3077
2023-05-19T04:18:31.434Z,102.5385
2023-05-19T04:19:33.027Z,97.9231
2023-05-19T04:20:35.158Z,102.6923
2023-05-19T04:21:36.288Z,100.3846
2023-05-19T04:22:37.972Z,102.3077
2023-05-19T04:23:39.615Z,100.8462
2023-05-19T04:24:41.274Z,97.6923
2023-05-19T04:25:42.940Z,99.2308
2023-05-19T04:26:44.573Z,100.8462
2023-05-19T04:27:46.235Z,103.4615
2023-05-19T04:28:47.879Z,103.0769
2023-05-19T04:29:49.469Z,103.0769
2023-05-19T04:30:51.307Z,101.6154
2023-05-19T04:31:52.779Z,101.0769
2023-05-19T04:32:55.431Z,99.1538
2023-05-19T04:33:55.973Z,105.5385
2023-05-19T04:34:57.754Z,102.3846
2023-05-19T04:35:59.405Z,102.6923
2023-05-19T04:37:01.029Z,105.5385
2023-05-19T04:38:02.664Z,105.3846
2023-05-19T04:39:04.286Z,105.6923
2023-05-19T04:40:06.176Z,103.0769
2023-05-19T04:41:07.558Z,102.2308
2023-05-19T04:42:09.234Z,102.3077
2023-05-19T04:43:10.866Z,105.6154
2023-05-19T04:44:12.479Z,105.6923
2023-05-19T04:45:14.336Z,103.5385
2023-05-19T04:46:16.902Z,104.9231
2023-05-19T04:47:17.323Z,100.6923
2023-05-19T04:48:19.106Z,101.6923
2023-05-19T04:49:20.649Z,104.2308
2023-05-19T04:50:22.423Z,105.9231
2023-05-19T04:51:24.031Z,103.1538
2023-05-19T04:52:25.719Z,104.0769
2023-05-19T04:53:27.277Z,104.3846
2023-05-19T04:54:28.966Z,109.0769
2023-05-19T04:55:30.551Z,106.6154
2023-05-19T04:56:32.328Z,108.7692
2023-05-19T04:57:33.821Z,113.3077
2023-05-19T04:58:35.475Z,118.3846
2023-05-19T04:59:37.690Z,114.6923
2023-05-19T05:00:38.749Z,118.4615
2023-05-19T05:01:40.519Z,115.3846
2023-05-19T05:02:43.251Z,114.3846
2023-05-19T05:03:43.731Z,114.3077
2023-05-19T05:04:45.291Z,117.6923
2023-05-19T05:05:46.969Z,121.2308
2023-05-19T05:06:48.673Z,120.3846
2023-05-19T05:07:51.187Z,122.9231
2023-05-19T05:08:51.857Z,119.6923
2023-05-19T05:09:53.441Z,120.3846
2023-05-19T05:10:55.125Z,126.4615
2023-05-19T05:11:56.904Z,124.6923
2023-05-19T05:12:58.427Z,127.3846
2023-05-19T05:14:00.178Z,125.8462
2023-05-19T05:15:01.788Z,125.6154
2023-05-19T05:16:03.442Z,127.7692
2023-05-19T05:17:05.211Z,129.6923
2023-05-19T05:18:06.704Z,135.0769
2023-05-19T05:19:08.341Z,127.6923
2023-05-19T05:20:09.954Z,133.6154
2023-05-19T05:21:11.604Z,135.3077
2023-05-19T05:22:13.278Z,133.8462
2023-05-19T05:23:14.925Z,137.1538
2023-05-19T05:24:16.476Z,137.5385
2023-05-19T05:25:18.272Z,136.4615
2023-05-19T05:26:19.838Z,143.8462
2023-05-19T05:27:21.564Z,139.3846
2023-05-19T05:28:23.084Z,145.3846
2023-05-19T05:29:24.790Z,139.3077
2023-05-19T05:30:26.335Z,138.3846
2023-05-19T05:31:28.016Z,145.3077
2023-05-19T05:32:30.809Z,143.6923
2023-05-19T05:33:31.190Z,144.9231
2023-05-19T05:34:33.043Z,143.3077
2023-05-19T05:35:34.676Z,140.2308
2023-05-19T05:36:36.328Z,142.2308
2023-05-19T05:37:37.912Z,141.6923
2023-05-19T05:38:39.611Z,148.8462
2023-05-19T05:39:42.198Z,151.9231
2023-05-19T05:40:42.809Z,151.5385
2023-05-19T05:41:44.491Z,151.0000
2023-05-19T05:42:46.178Z,149.8462
2023-05-19T05:43:48.754Z,150.9231
2023-05-19T05:44:50.373Z,152.3077
2023-05-19T05:45:51.097Z,153.1538
2023-05-19T05:46:52.712Z,155.7692
2023-05-19T05:47:55.261Z,155.5385
2023-05-19T05:48:56.958Z,156.0000
2023-05-19T05:49:58.491Z,157.7692
2023-05-19T05:50:59.361Z,151.4615
2023-05-19T05:52:06.428Z,149.9231
2023-05-19T05:53:02.528Z,146.5833
2023-05-19T05:54:04.084Z,146.3846
2023-05-19T05:55:05.807Z,150.8462
2023-05-19T05:56:07.436Z,149.8462
2023-05-19T05:57:09.113Z,152.8462
2023-05-19T05:58:10.724Z,146.3077
2023-05-19T05:59:12.338Z,147.8462
2023-05-19T06:00:13.993Z,153.7692
2023-05-19T06:01:15.689Z,154.6154
2023-05-19T06:02:17.331Z,155.9231
2023-05-19T06:03:19.061Z,152.4615
2023-05-19T06:04:20.573Z,146.5385
2023-05-19T06:05:23.128Z,150.3077
2023-05-19T06:06:23.881Z,157.9231
2023-05-19T06:07:25.573Z,155.7692
2023-05-19T06:08:27.150Z,155.3077
2023-05-19T06:09:28.754Z,152.6923
2023-05-19T06:10:30.552Z,150.2308
2023-05-19T06:11:32.058Z,154.9231
2023-05-19T06:12:33.663Z,152.4615
2023-05-19T06:13:35.572Z,155.0000
2023-05-19T06:14:36.956Z,147.8462
2023-05-19T06:15:38.679Z,154.0769
2023-05-19T06:16:40.331Z,156.8462
2023-05-19T06:17:41.960Z,154.0000
2023-05-19T06:18:43.637Z,156.0769
2023-05-19T06:19:45.302Z,152.2308
2023-05-19T06:20:46.897Z,148.4615
2023-05-19T06:21:48.504Z,157.1538
2023-05-19T06:22:50.083Z,157.6923
2023-05-19T06:23:51.848Z,154.0769
2023-05-19T06:24:53.389Z,157.2308
2023-05-19T06:25:55.071Z,149.9231
2023-05-19T06:26:56.808Z,152.9231
2023-05-19T06:27:58.433Z,158.0769
2023-05-19T06:29:00.126Z,155.3846
2023-05-19T06:30:01.726Z,157.3846
2023-05-19T06:31:03.312Z,158.7692
2023-05-19T06:32:04.912Z,153.8462
2023-05-19T06:33:06.601Z,157.5385
2023-05-19T06:34:08.263Z,162.4615
2023-05-19T06:35:09.844Z,160.0769
2023-05-19T06:36:11.448Z,158.5385
2023-05-19T06:37:13.245Z,160.5385
2023-05-19T06:38:14.799Z,164.3846
2023-05-19T06:39:17.121Z,162.7692
2023-05-19T06:40:18.072Z,161.1538
2023-05-19T06:41:19.698Z,160.1538
2023-05-19T06:42:21.335Z,163.3077
2023-05-19T06:43:22.991Z,165.8462
2023-05-19T06:44:24.708Z,162.3846
2023-05-19T06:45:26.271Z,164.0000
2023-05-19T06:46:27.971Z,163.7692
2023-05-19T06:47:29.656Z,167.3077
2023-05-19T06:48:31.224Z,166.1538
2023-05-19T06:49:33.136Z,163.7692
2023-05-19T06:50:34.849Z,167.8462
2023-05-19T06:51:36.184Z,168.9231
2023-05-19T06:52:37.790Z,169.6154
2023-05-19T06:53:39.501Z,170.9231
2023-05-19T06:54:41.247Z,169.6923
2023-05-19T06:55:57.499Z,164.6154
2023-05-19T06:56:44.500Z,165.5385
2023-05-19T06:57:46.098Z,164.2308
2023-05-19T06:58:47.753Z,172.0769
2023-05-19T06:59:49.448Z,172.3846
2023-05-19T07:00:51.013Z,169.0769
2023-05-19T07:01:52.770Z,168.5385
2023-05-19T07:02:55.128Z,169.8462
2023-05-19T07:03:56.068Z,171.3077
2023-05-19T07:04:58.087Z,174.0769
2023-05-19T07:05:59.609Z,177.3077
2023-05-19T07:07:00.873Z,171.0000
2023-05-19T07:08:02.586Z,167.6154
2023-05-19T07:09:04.225Z,170.5385
2023-05-19T07:10:05.831Z,175.3077
2023-05-19T07:11:07.469Z,177.2308
2023-05-19T07:12:09.105Z,170.0000
2023-05-19T07:13:10.748Z,176.3846
2023-05-19T07:14:12.387Z,166.1538
2023-05-19T07:15:14.075Z,174.5385
2023-05-19T07:16:15.728Z,175.3077
2023-05-19T07:17:17.314Z,173.3077
2023-05-19T07:18:19.095Z,173.6154
2023-05-19T07:19:20.762Z,179.1538
2023-05-19T07:20:23.147Z,177.9231
2023-05-19T07:21:23.880Z,179.8462
2023-05-19T07:22:25.586Z,180.0000
2023-05-19T07:23:27.125Z,182.3077
2023-05-19T07:24:28.810Z,172.9231
2023-05-19T07:25:30.486Z,178.9231
2023-05-19T07:26:32.050Z,179.4615
2023-05-19T07:27:33.663Z,181.4615
2023-05-19T07:28:35.298Z,175.5385
2023-05-19T07:29:36.952Z,177.0769
2023-05-19T07:30:38.590Z,175.5385
2023-05-19T07:31:41.091Z,183.7692
2023-05-19T07:32:41.896Z,182.2308
2023-05-19T07:33:43.496Z,177.1538
2023-05-19T07:34:45.206Z,182.2308
2023-05-19T07:35:46.878Z,181.1538
2023-05-19T07:36:48.568Z,184.1538
2023-05-19T07:37:50.055Z,189.2308
2023-05-19T07:38:51.778Z,181.6154
2023-05-19T07:39:53.384Z,181.2308
2023-05-19T07:40:55.151Z,179.3077
2023-05-19T07:41:56.711Z,186.9231
2023-05-19T07:42:58.306Z,184.7692
2023-05-19T07:43:59.944Z,184.4615
2023-05-19T07:45:01.748Z,188.0769
2023-05-19T07:46:03.589Z,186.0769
2023-05-19T07:47:05.064Z,187.4615
2023-05-19T07:48:06.826Z,190.5385
2023-05-19T07:49:09.323Z,186.3846
2023-05-19T07:50:09.931Z,189.5385
2023-05-19T07:51:11.806Z,182.4615
2023-05-19T07:52:13.389Z,183.0000
2023-05-19T07:53:15.904Z,189.5385
2023-05-19T07:54:16.465Z,189.3077
2023-05-19T07:55:19.100Z,184.3077
2023-05-19T07:56:19.871Z,192.0769
2023-05-19T07:57:21.588Z,180.0769
2023-05-19T07:58:24.269Z,189.4615
2023-05-19T07:59:25.652Z,190.3846
2023-05-19T08:00:26.430Z,188.9231
2023-05-19T08:01:29.049Z,190.8462
2023-05-19T08:02:29.771Z,187.0769
2023-05-19T08:03:31.406Z,188.6923
2023-05-19T08:04:33.069Z,193.1538
2023-05-19T08:05:34.631Z,185.8462
2023-05-19T08:06:36.348Z,195.8462
2023-05-19T08:07:38.032Z,190.0769
2023-05-19T08:08:39.573Z,190.9231
2023-05-19T08:09:41.243Z,198.7692
2023-05-19T08:10:42.884Z,197.3846
2023-05-19T08:11:44.467Z,193.3077
2023-05-19T08:12:46.750Z,191.0000
2023-05-19T08:13:47.705Z,188.0769
2023-05-19T08:14:49.476Z,192.9231
2023-05-19T08:15:51.123Z,193.9231
2023-05-19T08:16:52.716Z,192.2308
2023-05-19T08:17:54.402Z,199.1538
2023-05-19T08:18:56.081Z,190.3846
2023-05-19T08:19:57.798Z,188.3846
2023-05-19T08:21:00.349Z,196.3077
2023-05-19T08:22:00.821Z,197.1538
2023-05-19T08:23:02.564Z,195.3077
2023-05-19T08:24:04.249Z,199.0000
2023-05-19T08:25:05.904Z,189.6154
2023-05-19T08:26:07.488Z,201.0000
2023-05-19T08:27:09.148Z,199.9231
2023-05-19T08:28:10.752Z,194.6923
2023-05-19T08:29:12.486Z,195.3846
2023-05-19T08:30:14.214Z,194.8462
2023-05-19T08:31:15.813Z,201.0000
2023-05-19T08:32:17.439Z,200.4615
2023-05-19T08:33:19.039Z,201.1538
2023-05-19T08:34:20.757Z,202.9231
2023-05-19T08:35:23.397Z,199.3077
2023-05-19T08:36:24.187Z,195.7692
2023-05-19T08:37:25.597Z,200.3846
2023-05-19T08:38:27.276Z,201.8462
2023-05-19T08:39:28.876Z,200.9231
2023-05-19T08:40:30.711Z,202.8462
2023-05-19T08:41:32.300Z,201.1538
2023-05-19T08:42:34.839Z,197.7692
2023-05-19T08:43:35.356Z,201.7692
2023-05-19T08:44:37.109Z,202.5385
2023-05-19T08:45:38.832Z,199.9231
2023-05-19T08:46:40.454Z,200.9231
2023-05-19T08:47:42.076Z,204.1538
2023-05-19T08:48:43.709Z,205.5385
2023-05-19T08:49:45.305Z,208.6154
2023-05-19T08:50:46.945Z,205.2308
2023-05-19T08:51:48.700Z,202.9231
2023-05-19T08:52:52.958Z,198.0000
2023-05-19T08:53:51.913Z,197.0000
2023-05-19T08:54:53.470Z,201.6154
2023-05-19T08:55:56.162Z,203.6154
2023-05-19T08:56:56.782Z,194.1538
2023-05-19T08:57:58.388Z,193.6923
2023-05-19T08:58:59.990Z,192.1538
2023-05-19T09:00:01.669Z,199.1538
2023-05-19T09:01:03.322Z,200.6154
2023-05-19T09:02:05.702Z,199.8462
2023-05-19T09:04:08.373Z,186.4615
2023-05-19T09:05:09.948Z,188.6154
2023-05-19T09:06:11.513Z,194.8462
2023-05-19T09:07:13.190Z,204.5385
2023-05-19T09:08:14.960Z,193.9231
2023-05-19T09:09:16.481Z,186.5385
2023-05-19T09:10:18.177Z,188.6154
2023-05-19T09:11:19.761Z,193.6923
2023-05-19T09:12:21.538Z,198.2308
2023-05-19T09:13:23.038Z,200.3077
2023-05-19T09:14:24.667Z,187.1538
2023-05-19T09:15:26.321Z,179.3077
2023-05-19T09:16:29.942Z,186.0000
2023-05-19T09:17:29.631Z,199.3077
2023-05-19T09:18:31.315Z,208.1538
2023-05-19T09:19:33.036Z,191.6923
2023-05-19T09:20:34.638Z,181.9231
2023-05-19T09:21:36.172Z,180.4615
2023-05-19T09:22:38.225Z,192.3846
2023-05-19T09:23:39.469Z,198.5385
2023-05-19T09:24:41.202Z,209.6923
2023-05-19T09:25:42.716Z,182.3077
2023-05-19T09:26:44.425Z,177.6154
2023-05-19T09:27:46.160Z,181.1538
2023-05-19T09:28:47.735Z,189.1538
2023-05-19T09:29:49.303Z,198.7692
2023-05-19T09:30:51.012Z,192.8462
2023-05-19T09:31:52.738Z,178.3077
2023-05-19T09:32:54.341Z,176.7692
2023-05-19T09:33:56.074Z,187.2308
2023-05-19T09:34:57.549Z,191.3077
2023-05-19T09:35:59.175Z,203.0769
2023-05-19T09:37:00.903Z,190.0000
2023-05-19T09:38:02.488Z,182.1538
2023-05-19T09:39:04.229Z,179.8462
2023-05-19T09:40:05.798Z,195.4615
2023-05-19T09:41:07.484Z,199.1538
2023-05-19T09:42:09.082Z,202.7692
2023-05-19T09:43:10.730Z,186.3077
2023-05-19T09:44:12.400Z,183.6154
2023-05-19T09:45:14.043Z,195.3077
2023-05-19T09:46:15.595Z,209.3846
2023-05-19T09:47:17.313Z,219.2308
2023-05-19T09:48:18.922Z,198.1538
2023-05-19T09:49:20.618Z,193.8462
2023-05-19T09:50:22.208Z,194.1538
2023-05-19T09:51:23.855Z,200.3846
2023-05-19T09:52:25.503Z,214.3846
2023-05-19T09:53:27.226Z,208.8462
2023-05-19T09:54:28.849Z,207.4615
2023-05-19T09:55:31.099Z,200.8462
2023-05-19T09:56:32.120Z,206.0000
2023-05-19T09:57:33.696Z,210.0769
2023-05-19T09:58:35.563Z,214.7692
2023-05-19T09:59:37.041Z,213.0769
2023-05-19T10:00:38.703Z,221.1538
2023-05-19T10:01:40.389Z,213.3846
2023-05-19T10:02:41.960Z,218.7692
2023-05-19T10:03:43.535Z,220.0000
2023-05-19T10:04:45.854Z,220.3077
2023-05-19T10:05:46.883Z,218.4615
2023-05-19T10:06:48.461Z,220.1538
2023-05-19T10:07:50.114Z,219.6154
2023-05-19T10:08:51.741Z,224.3846
2023-05-19T10:09:53.752Z,223.6923
2023-05-19T10:10:55.072Z,218.7692
2023-05-19T10:11:57.181Z,221.4615
2023-05-19T10:12:58.381Z,222.0000
2023-05-19T10:14:00.012Z,220.4615
2023-05-19T10:15:01.598Z,224.8462
2023-05-19T10:16:03.586Z,217.6154
2023-05-19T10:17:05.069Z,226.0769
2023-05-19T10:18:06.557Z,220.4615
2023-05-19T10:19:08.206Z,223.0769
2023-05-19T10:20:09.841Z,222.6154
2023-05-19T10:21:11.495Z,225.3846
2023-05-19T10:22:13.049Z,221.6154
2023-05-19T10:23:15.159Z,224.6923
2023-05-19T10:24:16.301Z,221.3077
2023-05-19T10:25:17.924Z,225.5385
2023-05-19T10:26:19.523Z,222.3846
2023-05-19T10:27:21.247Z,223.6154
2023-05-19T10:28:22.916Z,227.3077
2023-05-19T10:29:24.666Z,228.9231
2023-05-19T10:30:26.137Z,223.7692
2023-05-19T10:31:27.787Z,225.8462
2023-05-19T10:32:29.698Z,225.0000
2023-05-19T10:33:31.631Z,222.9231
2023-05-19T10:34:32.699Z,223.3077
2023-05-19T10:35:34.521Z,220.7692
2023-05-19T10:36:36.052Z,222.4615
2023-05-19T10:37:38.186Z,229.0000
2023-05-19T10:38:39.296Z,224.7692
2023-05-19T10:39:41.109Z,226.6154
2023-05-19T10:40:42.765Z,228.2308
2023-05-19T10:41:45.137Z,229.8462
2023-05-19T10:42:46.019Z,227.9231
2023-05-19T10:43:47.678Z,228.8462
2023-05-19T10:44:49.340Z,230.6923
2023-05-19T10:45:51.003Z,229.9231
2023-05-19T10:46:54.162Z,228.4615
2023-05-19T10:47:54.257Z,230.7692
2023-05-19T10:48:56.966Z,228.7692
2023-05-19T10:49:57.467Z,228.9231
2023-05-19T10:50:59.160Z,228.0769
2023-05-19T10:52:00.758Z,223.9231
2023-05-19T10:53:03.376Z,223.2308
2023-05-19T10:54:04.154Z,226.7692
2023-05-19T10:55:05.738Z,221.3846
2023-05-19T10:56:07.449Z,220.9231
2023-05-19T10:57:09.125Z,221.4615
2023-05-19T10:58:10.838Z,224.4615
2023-05-19T10:59:12.874Z,228.3077
2023-05-19T11:00:15.177Z,224.4615
2023-05-19T11:01:15.761Z,220.6154
2023-05-19T11:02:18.399Z,217.8462
2023-05-19T11:03:20.229Z,226.0000
2023-05-19T11:04:20.781Z,227.3077
2023-05-19T11:05:22.232Z,221.0000
2023-05-19T11:06:23.955Z,219.0000
2023-05-19T11:07:25.556Z,218.3077
2023-05-19T11:08:27.298Z,272.4615
2023-05-19T11:09:39.879Z,235.6154
2023-05-19T11:10:31.348Z,226.4615
2023-05-19T11:11:33.230Z,258.7692
2023-05-19T11:12:33.710Z,240.1538
2023-05-19T11:13:36.667Z,258.3077
2023-05-19T11:14:37.057Z,273.3077
2023-05-19T11:15:38.575Z,283.5385
2023-05-19T11:16:41.404Z,267.8462
2023-05-19T11:17:41.983Z,260.4615
2023-05-19T11:18:43.685Z,261.9231
2023-05-19T11:19:45.249Z,288.3077
2023-05-19T11:20:47.071Z,304.7692
2023-05-19T11:21:48.570Z,310.9231
2023-05-19T11:22:50.169Z,314.2308
2023-05-19T11:23:51.938Z,302.9231
2023-05-19T11:24:53.890Z,306.4615
2023-05-19T11:25:55.895Z,315.6923
2023-05-19T11:26:56.739Z,322.0769
2023-05-19T11:27:58.497Z,307.0000
2023-05-19T11:29:00.023Z,295.6154
2023-05-19T11:30:01.836Z,290.0000
2023-05-19T11:31:03.404Z,302.6154
2023-05-19T11:32:05.078Z,312.7692
2023-05-19T11:33:06.686Z,306.0769
2023-05-19T11:34:08.247Z,286.5385
2023-05-19T11:35:09.932Z,277.9231
2023-05-19T11:36:11.579Z,282.8462
2023-05-19T11:37:13.353Z,296.3846
2023-05-19T11:38:15.795Z,303.7692
2023-05-19T11:39:17.465Z,278.6923
2023-05-19T11:40:18.126Z,275.2308
2023-05-19T11:41:20.848Z,269.6923
2023-05-19T11:42:21.474Z,276.4615
2023-05-19T11:43:23.145Z,291.6154
2023-05-19T11:44:24.742Z,281.1538
2023-05-19T11:45:26.392Z,264.6923
2023-05-19T11:46:29.066Z,263.1538
2023-05-19T11:47:32.042Z,263.3846
2023-05-19T11:48:31.319Z,266.3846
2023-05-19T11:49:32.787Z,282.5385
2023-05-19T11:50:34.451Z,269.0000
2023-05-19T11:51:36.126Z,258.3846
2023-05-19T11:52:38.277Z,252.5385
2023-05-19T11:53:39.388Z,256.0000
2023-05-19T11:54:41.029Z,272.5385
2023-05-19T11:55:42.654Z,278.6154
2023-05-19T11:56:44.367Z,257.5385
2023-05-19T11:57:56.038Z,248.4615
2023-05-19T11:58:47.602Z,244.2308
2023-05-19T11:59:49.314Z,253.5385
2023-05-19T12:00:50.863Z,268.8462
2023-05-19T12:01:52.565Z,257.6154
2023-05-19T12:02:54.390Z,252.3077
2023-05-19T12:03:55.986Z,248.3077
2023-05-19T12:04:57.541Z,244.8462
2023-05-19T12:05:59.193Z,254.5385
2023-05-19T12:07:00.777Z,271.1538
2023-05-19T12:08:02.463Z,253.3846
2023-05-19T12:09:04.000Z,244.6923
2023-05-19T12:10:05.718Z,241.7692
2023-05-19T12:11:07.302Z,239.0769